Time;durP1;ratioP1;P1;durP2;ratioP2;P2;SDS_P1;SDS_P2;PMS_P1;PMS_P2;Temp;Humidity;BMP_temperature;BMP_pressure;BME280_temperature;BME280_humidity;BME280_pressure;Samples;Min_cycle;Max_cycle;Signal;HPM_P1;HPM_P2
2021/09/20 00:00:06;;;;;;;9.68;5.97;;;13.70;85.80;;;10.90;90.47;100711.59;5069195;28;20041;-73
2021/09/20 00:02:42;;;;;;;13.23;6.07;;;13.70;86.00;;;10.77;91.17;100716.78;5050896;28;20087;-72
2021/09/20 00:07:57;;;;;;;9.65;5.68;;;13.60;86.10;;;10.72;91.59;100713.78;5066622;28;20052;-73
2021/09/20 00:10:29;;;;;;;9.93;6.10;;;13.60;86.20;;;10.66;91.94;100717.19;5068921;28;20519;-73
2021/09/20 00:12:59;;;;;;;9.18;6.20;;;13.50;86.30;;;10.63;92.15;100718.41;5068933;28;20044;-73
2021/09/20 00:15:28;;;;;;;10.65;6.60;;;13.50;86.50;;;10.60;92.04;100720.66;5068936;28;20090;-72
2021/09/20 00:18:00;;;;;;;12.98;6.25;;;13.40;86.50;;;10.60;92.01;100728.81;5068846;28;20079;-72
2021/09/20 00:20:30;;;;;;;11.02;6.35;;;13.40;86.80;;;10.56;92.11;100722.88;5034684;28;20523;-72
2021/09/20 00:23:00;;;;;;;9.65;6.05;;;13.30;86.80;;;10.52;92.71;100722.38;5068808;28;20094;-72
2021/09/20 00:25:33;;;;;;;10.65;6.07;;;13.30;87.00;;;10.52;93.29;100725.09;5050597;28;20059;-72
2021/09/20 00:28:05;;;;;;;9.82;6.53;;;13.30;87.20;;;10.63;92.95;100728.47;5068184;28;20458;-72
2021/09/20 00:30:48;;;;;;;9.02;5.80;;;13.30;87.40;;;10.69;93.46;100722.28;5067984;28;20151;-72
2021/09/20 00:33:16;;;;;;;13.07;6.55;;;13.30;87.70;;;10.72;93.35;100724.66;5068276;28;20090;-72
2021/09/20 00:35:45;;;;;;;11.55;6.35;;;13.20;87.90;;;10.67;93.61;100717.03;5047124;28;20071;-72
2021/09/20 00:38:23;;;;;;;9.98;6.13;;;13.20;88.00;;;10.76;93.50;100718.66;5068133;28;20048;-73
2021/09/20 00:41:01;;;;;;;10.15;6.35;;;13.20;88.30;;;10.73;93.43;100723.63;5068124;28;20045;-72
2021/09/20 00:43:36;;;;;;;9.90;6.05;;;13.20;88.30;;;10.61;93.06;100725.91;5068281;28;20056;-72
2021/09/20 00:46:21;;;;;;;11.60;6.35;;;13.20;88.30;;;10.59;93.44;100727.13;5068247;28;20048;-72
2021/09/20 00:48:52;;;;;;;11.45;6.50;;;13.20;88.30;;;10.55;93.51;100723.91;5065778;28;20420;-72
2021/09/20 00:51:41;;;;;;;9.77;6.25;;;13.20;88.30;;;10.51;93.56;100726.16;5055539;28;20140;-72
2021/09/20 00:54:26;;;;;;;10.68;6.55;;;13.20;88.30;;;10.42;93.93;100739.97;5066110;28;20550;-72
2021/09/20 00:59:54;;;;;;;11.27;6.88;;;13.10;88.30;;;10.39;93.45;100733.00;5067010;28;20095;-73
2021/09/20 01:02:29;;;;;;;11.85;6.40;;;13.10;88.30;;;10.38;93.51;100742.22;5068053;28;20090;-72
2021/09/20 01:04:58;;;;;;;10.43;6.70;;;13.00;88.30;;;10.35;93.95;100731.66;5068040;28;20040;-72
2021/09/20 01:07:35;;;;;;;10.88;5.93;;;13.00;88.30;;;10.39;93.76;100730.28;5058630;28;20551;-72
2021/09/20 01:10:11;;;;;;;11.82;6.15;;;13.00;88.40;;;10.49;93.03;100736.38;5047778;28;20045;-72
2021/09/20 01:12:48;;;;;;;9.98;6.13;;;12.90;88.60;;;10.50;92.84;100735.31;5047799;28;20147;-73
2021/09/20 01:15:39;;;;;;;9.98;6.15;;;12.90;88.60;;;10.41;93.04;100741.84;5046276;28;20049;-72
2021/09/20 01:18:27;;;;;;;9.27;6.20;;;12.90;88.60;;;10.37;93.37;100735.06;5047722;28;20041;-72
2021/09/20 01:21:03;;;;;;;15.52;7.40;;;12.80;88.60;;;10.29;93.92;100743.22;5047215;28;20103;-72
2021/09/20 01:23:42;;;;;;;12.95;6.82;;;12.90;88.90;;;10.40;94.17;100737.44;5047758;28;20110;-72
2021/09/20 01:26:18;;;;;;;13.27;7.18;;;12.90;89.10;;;10.36;93.82;100739.66;5047575;28;20098;-72
2021/09/20 01:28:51;;;;;;;12.32;6.68;;;12.90;89.20;;;10.38;94.75;100739.50;5064750;28;20542;-72
2021/09/20 01:31:32;;;;;;;10.95;6.75;;;12.90;89.20;;;10.44;94.66;100736.03;5067629;28;20037;-72
2021/09/20 01:34:08;;;;;;;11.48;6.60;;;12.90;89.40;;;10.44;94.73;100741.50;5067861;28;20093;-72
2021/09/20 01:36:42;;;;;;;13.82;6.80;;;12.80;89.40;;;10.50;94.96;100739.94;5067701;28;20036;-72
2021/09/20 01:39:35;;;;;;;12.02;7.63;;;12.80;89.60;;;10.50;95.26;100743.50;5066104;28;20080;-72
2021/09/20 01:42:11;;;;;;;12.73;8.18;;;12.80;89.90;;;10.54;95.16;100741.25;5067391;28;20055;-72
2021/09/20 01:44:41;;;;;;;11.40;7.20;;;12.90;90.10;;;10.60;95.89;100739.69;5067126;28;20057;-72
2021/09/20 01:47:23;;;;;;;12.52;7.43;;;12.90;90.10;;;10.70;95.83;100740.31;5067250;28;20041;-72
2021/09/20 01:49:57;;;;;;;12.77;7.60;;;12.90;90.20;;;10.75;96.32;100735.19;5066886;28;20420;-73
2021/09/20 01:52:33;;;;;;;11.50;7.90;;;12.90;90.40;;;10.81;96.04;100731.72;5066616;28;20132;-73
2021/09/20 01:55:11;;;;;;;12.02;7.07;;;12.90;90.60;;;10.83;96.22;100729.66;5066653;28;20048;-72
2021/09/20 01:57:55;;;;;;;12.98;7.88;;;13.00;91.00;;;10.91;95.88;100732.34;5048553;28;20048;-72
2021/09/20 02:00:43;;;;;;;13.85;8.10;;;13.00;90.80;;;11.05;93.87;100727.13;5048187;28;20072;-72
2021/09/20 02:03:20;;;;;;;13.35;7.82;;;13.00;90.70;;;11.01;94.90;100728.53;5048589;28;20044;-72
2021/09/20 02:05:56;;;;;;;12.77;7.60;;;13.10;90.80;;;10.99;95.26;100733.31;5064206;28;20082;-72
2021/09/20 02:08:35;;;;;;;15.45;8.07;;;13.10;90.80;;;10.93;95.51;100726.72;5052217;28;20848;-73
2021/09/20 02:11:07;;;;;;;11.88;7.38;;;13.10;90.80;;;11.01;95.24;100731.25;5069786;28;20061;-72
2021/09/20 02:13:38;;;;;;;18.92;8.48;;;13.20;90.70;;;11.13;94.03;100724.34;5070756;28;20052;-72
2021/09/20 02:16:06;;;;;;;;;;;13.20;90.60;;;11.16;94.01;100729.44;5036083;28;20488;-73
2021/09/20 02:18:47;;;;;;;15.30;8.15;;;13.20;90.60;;;11.12;95.32;100731.69;5070258;28;20605;-73
2021/09/20 02:21:14;;;;;;;14.52;7.78;;;13.20;90.70;;;11.23;94.40;100724.09;5068820;28;20049;-72
2021/09/20 02:23:56;;;;;;;13.10;7.75;;;13.30;90.70;;;11.34;92.62;100726.38;5052490;28;20036;-73
2021/09/20 02:26:39;;;;;;;16.05;8.43;;;13.20;90.20;;;11.41;91.97;100726.50;5070140;28;20064;-72
2021/09/20 02:37:42;;;;;;;15.27;8.00;;;13.30;91.00;;;11.34;93.67;100726.38;5048306;28;20047;-72
2021/09/20 02:40:21;;;;;;;15.68;8.35;;;13.40;90.80;;;11.43;92.22;100732.59;5033595;28;20068;-72
2021/09/20 02:42:54;;;;;;;14.88;8.10;;;13.30;90.30;;;11.47;93.25;100739.38;5031835;28;20049;-72
2021/09/20 02:45:31;;;;;;;12.73;7.63;;;13.30;90.60;;;11.62;91.68;100729.34;5049767;28;20037;-72
2021/09/20 02:48:03;;;;;;;14.48;9.30;;;13.40;90.60;;;11.52;91.39;100724.16;5049868;28;20122;-73
2021/09/20 02:50:31;;;;;;;12.52;8.15;;;13.40;90.80;;;11.57;91.24;100731.75;5049636;28;20052;-73
2021/09/20 02:53:01;;;;;;;15.60;8.35;;;13.40;90.40;;;11.68;90.02;100728.59;5031525;28;20139;-73
2021/09/20 02:55:50;;;;;;;13.60;7.60;;;13.40;90.00;;;11.69;90.09;100730.28;5049690;28;20064;-72
2021/09/20 02:58:29;;;;;;;14.73;8.48;;;13.40;90.40;;;11.65;90.01;100734.44;5049424;28;20093;-72
2021/09/20 03:01:20;;;;;;;14.52;9.02;;;13.40;90.40;;;11.74;89.40;100733.28;5049554;28;20106;-72
2021/09/20 03:03:55;;;;;;;15.93;8.40;;;13.40;89.60;;;11.78;88.39;100732.91;5031821;28;20057;-73
2021/09/20 03:06:29;;;;;;;12.90;8.13;;;13.40;89.80;;;11.66;90.23;100727.09;5049581;28;20196;-72
2021/09/20 03:09:11;;;;;;;17.25;8.52;;;13.50;90.40;;;11.69;89.68;100722.09;5049400;28;20067;-72
2021/09/20 03:11:41;;;;;;;17.33;8.63;;;13.50;90.20;;;11.66;89.80;100730.66;5049019;28;20048;-72
2021/09/20 03:14:22;;;;;;;13.40;8.35;;;13.50;89.80;;;11.77;88.35;100726.63;5031273;28;20052;-73
2021/09/20 03:17:18;;;;;;;13.50;9.02;;;13.50;89.60;;;11.81;87.60;100719.75;5048729;28;20044;-73
2021/09/20 03:19:53;;;;;;;12.75;7.88;;;13.50;89.30;;;11.74;87.93;100725.09;5033658;28;20084;-72
2021/09/20 03:22:32;;;;;;;12.57;8.32;;;13.60;89.10;;;11.77;87.19;100731.25;5068654;28;20123;-72
2021/09/20 03:25:29;;;;;;;11.85;8.32;;;13.50;88.80;;;11.83;85.87;100728.59;5068826;28;20048;-72
2021/09/20 03:28:20;;;;;;;13.10;8.60;;;13.50;88.90;;;11.85;85.91;100733.88;5050741;28;20152;-72
2021/09/20 03:31:02;;;;;;;12.88;7.90;;;13.60;89.00;;;11.86;85.97;100732.81;5068069;28;20060;-72
2021/09/20 03:33:58;;;;;;;12.82;8.07;;;13.60;88.90;;;11.77;87.19;100742.16;5068652;28;20072;-72
2021/09/20 03:36:35;;;;;;;14.70;8.65;;;13.60;88.90;;;11.81;86.50;100733.41;5068472;28;20044;-72
2021/09/20 03:39:36;;;;;;;16.55;8.88;;;13.70;88.60;;;11.81;85.41;100748.91;5050510;28;20041;-72
2021/09/20 03:42:21;;;;;;;12.32;8.18;;;13.60;88.10;;;11.83;86.50;100752.31;5068149;28;20111;-73
2021/09/20 03:45:08;;;;;;;11.55;7.35;;;13.60;88.30;;;11.86;84.92;100743.72;5067582;28;20512;-74
2021/09/20 03:48:34;;;;;;;15.05;8.07;;;13.60;87.50;;;11.90;84.77;100756.00;5050019;28;20036;-72
2021/09/20 03:54:08;;;;;;;11.75;7.80;;;13.60;87.90;;;11.79;83.98;100759.16;5066437;28;20088;-72
2021/09/20 03:56:46;;;;;;;12.20;8.18;;;13.70;87.90;;;11.86;84.12;100760.97;5050863;28;20048;-72
2021/09/20 03:59:24;;;;;;;12.75;8.07;;;13.60;86.90;;;11.90;84.16;100769.66;5051068;28;20045;-72
2021/09/20 04:02:19;;;;;;;13.65;7.95;;;13.70;87.60;;;11.99;82.86;100765.78;5068344;28;20052;-72
2021/09/20 04:04:58;;;;;;;12.95;8.07;;;13.60;86.30;;;11.96;84.23;100766.16;5050195;28;20052;-72
2021/09/20 04:08:08;;;;;;;13.32;8.55;;;13.60;87.00;;;11.82;84.33;100761.50;5068532;28;20032;-72
2021/09/20 04:11:08;;;;;;;14.43;8.23;;;13.60;87.50;;;11.92;84.34;100764.84;5068077;28;20044;-73
2021/09/20 04:14:14;;;;;;;13.30;8.18;;;13.70;87.40;;;12.02;83.92;100770.88;5068772;28;20048;-73
2021/09/20 04:16:47;;;;;;;15.23;9.10;;;13.70;87.20;;;11.94;84.21;100770.97;5050552;28;20060;-72
2021/09/20 04:22:24;;;;;;;11.43;7.35;;;13.70;86.90;;;11.93;84.83;100769.25;5066154;28;20147;-71
2021/09/20 04:25:06;;;;;;;11.95;7.88;;;13.70;87.30;;;11.91;85.65;100776.78;5068701;28;20709;-72
2021/09/20 04:31:00;;;;;;;12.27;7.68;;;13.80;87.40;;;11.72;86.82;100784.44;5068356;28;20044;-70
2021/09/20 04:33:40;;;;;;;;;;;13.80;87.40;;;11.77;86.17;100783.06;5068867;28;20067;-73
2021/09/20 04:36:33;;;;;;;;;;;13.80;87.20;;;11.88;85.86;100783.44;5068637;28;19924;-73
2021/09/20 04:39:35;;;;;;;12.32;8.02;;;13.80;87.00;;;11.91;85.43;100784.97;5061190;28;19925;-73
2021/09/20 04:42:15;;;;;;;14.48;7.68;;;13.80;87.00;;;11.78;85.43;100787.44;5048122;28;20603;-72
2021/09/20 04:45:11;;;;;;;11.77;7.70;;;13.80;87.50;;;11.71;86.51;100790.94;5048059;28;20416;-72
2021/09/20 04:47:46;;;;;;;12.90;8.63;;;13.80;87.40;;;11.67;86.46;100786.00;5047697;28;20049;-72
2021/09/20 04:50:39;;;;;;;11.80;7.78;;;13.80;87.40;;;11.69;86.28;100795.72;5048121;28;20045;-72
2021/09/20 04:53:52;;;;;;;11.60;8.05;;;13.80;87.40;;;11.81;85.32;100792.53;5041191;28;20064;-72
2021/09/20 05:00:29;;;;;;;18.30;9.10;;;13.80;87.10;;;11.77;84.88;100807.59;5006245;28;20041;-71
2021/09/20 05:03:34;;;;;;;13.30;7.72;;;13.80;87.00;;;11.79;84.70;100805.53;5008502;28;20052;-71
2021/09/20 05:06:40;;;;;;;14.73;7.70;;;13.80;86.90;;;11.83;83.39;100802.22;4998261;28;20465;-70
2021/09/20 05:09:41;;;;;;;12.10;7.57;;;13.80;86.70;;;11.80;83.26;100802.59;5008259;28;20422;-70
2021/09/20 05:12:35;;;;;;;11.98;7.68;;;13.80;85.70;;;11.88;82.88;100809.84;5005927;28;20595;-71
2021/09/20 05:15:35;;;;;;;13.82;8.07;;;13.80;86.30;;;11.99;81.81;100811.31;5006971;28;20054;-71
2021/09/20 05:18:49;;;;;;;14.27;8.95;;;13.70;85.50;;;11.97;81.85;100811.47;4993013;28;20080;-71
2021/09/20 05:21:39;;;;;;;11.02;7.60;;;13.60;85.80;;;11.97;81.50;100816.94;5002964;28;20045;-71
2021/09/20 05:24:44;;;;;;;14.73;7.95;;;13.70;86.20;;;11.93;81.20;100818.34;5001461;28;20034;-72
2021/09/20 05:27:18;;;;;;;13.40;7.60;;;13.70;86.00;;;11.90;82.96;100818.75;4989750;28;20136;-72
2021/09/20 05:33:06;;;;;;;13.98;8.00;;;13.70;85.30;;;11.97;81.71;100819.66;5004231;28;20053;-72
2021/09/20 05:36:09;;;;;;;15.57;8.23;;;13.70;85.70;;;11.95;81.76;100824.47;5007464;28;20054;-72
2021/09/20 05:39:22;;;;;;;12.57;8.02;;;13.80;85.60;;;11.97;81.02;100830.56;5007508;28;20417;-71
2021/09/20 05:42:55;;;;;;;13.32;7.75;;;13.80;85.00;;;11.99;80.82;100830.41;5005876;28;20045;-71
2021/09/20 05:45:54;;;;;;;11.88;7.60;;;13.80;85.30;;;12.08;80.65;100824.66;4949941;28;20058;-72
2021/09/20 05:51:10;;;;;;;12.20;7.90;;;13.80;84.40;;;12.12;80.53;100827.88;4977742;28;20120;-71
2021/09/20 05:54:10;;;;;;;11.48;7.90;;;13.80;85.00;;;12.11;79.89;100824.31;4981700;28;20058;-71
2021/09/20 05:56:49;;;;;;;12.98;7.35;;;13.80;84.30;;;12.13;79.83;100829.56;4985591;28;20502;-71
2021/09/20 06:02:42;;;;;;;12.77;8.13;;;13.80;85.20;;;12.10;80.01;100841.69;4974238;28;20058;-71
2021/09/20 06:05:12;;;;;;;13.80;9.10;;;13.80;84.90;;;12.15;79.65;100832.09;4985040;28;20046;-71
2021/09/20 06:07:40;;;;;;;12.43;7.78;;;13.80;84.70;;;12.16;80.03;100840.09;4977907;28;20043;-72
2021/09/20 06:10:10;;;;;;;14.63;7.78;;;13.80;84.80;;;12.16;80.05;100836.53;4977746;28;20149;-71
2021/09/20 06:12:37;;;;;;;12.55;7.97;;;13.90;84.20;;;12.24;79.42;100841.88;4985275;28;20050;-71
2021/09/20 06:15:09;;;;;;;15.23;7.85;;;13.80;84.20;;;12.24;79.42;100841.88;4985128;28;20129;-71
2021/09/20 06:17:37;;;;;;;12.32;8.00;;;13.80;84.00;;;12.28;79.17;100840.47;4983978;28;20046;-72
2021/09/20 06:20:06;;;;;;;14.95;8.73;;;13.80;84.30;;;12.28;79.48;100848.66;4969278;28;20050;-71
2021/09/20 06:22:34;;;;;;;12.68;8.23;;;13.90;84.60;;;12.28;78.94;100846.81;4980788;28;20050;-71
2021/09/20 06:25:02;;;;;;;11.25;7.82;;;13.90;84.10;;;12.33;78.35;100851.69;5006990;28;20133;-71
2021/09/20 06:27:30;;;;;;;14.13;8.23;;;13.90;84.00;;;12.31;77.79;100853.75;5007170;28;20556;-71
2021/09/20 06:29:57;;;;;;;11.60;7.78;;;13.90;83.70;;;12.32;78.02;100859.03;5005779;28;20046;-72
2021/09/20 06:32:26;;;;;;;12.90;8.05;;;13.90;83.30;;;12.38;78.12;100854.72;5006283;28;20050;-71
2021/09/20 06:34:54;;;;;;;12.50;8.07;;;13.90;84.00;;;12.35;77.39;100857.78;5007069;28;20050;-71
2021/09/20 06:37:21;;;;;;;13.77;7.68;;;13.90;83.20;;;12.40;77.01;100852.63;5007093;28;20064;-71
2021/09/20 06:39:48;;;;;;;13.45;8.48;;;13.90;82.90;;;12.42;77.33;100864.22;5005034;28;20742;-71
2021/09/20 06:42:16;;;;;;;13.82;8.77;;;13.90;83.80;;;12.43;77.18;100868.66;5006857;28;20620;-72
2021/09/20 06:44:43;;;;;;;12.52;7.97;;;13.90;83.00;;;12.47;76.08;100869.97;5005626;28;20050;-71
2021/09/20 06:47:11;;;;;;;13.63;8.23;;;13.90;82.60;;;12.49;76.21;100856.13;5007274;28;20050;-72
2021/09/20 06:49:40;;;;;;;12.00;8.35;;;13.90;83.20;;;12.55;76.42;100860.81;5006093;28;20413;-72
2021/09/20 06:52:07;;;;;;;13.82;8.23;;;13.90;82.80;;;12.56;75.61;100861.66;5005567;28;20076;-72
2021/09/20 06:54:34;;;;;;;13.35;8.27;;;13.90;82.10;;;12.52;76.03;100862.03;5010480;28;20065;-72
2021/09/20 06:57:02;;;;;;;10.52;7.63;;;14.00;82.60;;;12.56;75.99;100867.13;5010775;28;20054;-72
2021/09/20 06:59:29;;;;;;;12.15;7.78;;;14.00;82.70;;;12.60;75.24;100868.44;5009416;28;20038;-71
2021/09/20 07:01:57;;;;;;;13.63;7.88;;;14.00;82.10;;;12.67;74.41;100869.38;5010157;28;20054;-71
2021/09/20 07:04:24;;;;;;;13.00;8.23;;;14.00;81.40;;;12.70;74.52;100871.75;5008932;28;20054;-71
2021/09/20 07:06:53;;;;;;;15.52;8.60;;;14.00;81.80;;;12.76;73.86;100872.88;5010500;28;20050;-71
2021/09/20 07:09:20;;;;;;;12.35;8.02;;;14.00;81.30;;;12.80;73.92;100880.47;5009406;28;20088;-71
2021/09/20 07:11:47;;;;;;;12.82;8.43;;;14.00;81.40;;;12.83;74.51;100882.84;5009790;28;20046;-71
2021/09/20 07:14:15;;;;;;;12.50;8.10;;;14.10;82.30;;;12.83;75.31;100885.56;5010149;28;20041;-71
2021/09/20 07:16:42;;;;;;;13.38;8.60;;;14.20;82.10;;;12.85;73.96;100886.22;5010107;28;20046;-71
2021/09/20 07:19:10;;;;;;;11.63;8.00;;;14.20;81.10;;;12.90;74.11;100875.56;5006416;28;20042;-70
2021/09/20 07:21:37;;;;;;;18.10;8.45;;;14.20;81.70;;;12.94;74.59;100875.19;5025103;28;20144;-72
2021/09/20 07:24:06;;;;;;;11.60;8.38;;;14.20;82.00;;;12.99;74.41;100879.03;5009047;28;20053;-71
2021/09/20 07:26:34;;;;;;;11.35;7.45;;;14.30;81.20;;;13.04;74.05;100882.03;5008211;28;20125;-71
2021/09/20 07:29:01;;;;;;;11.63;7.78;;;14.30;81.70;;;13.10;74.64;100885.91;5015497;28;20468;-71
2021/09/20 07:31:29;;;;;;;13.02;7.40;;;14.40;82.00;;;13.15;72.98;100877.94;5009271;28;20045;-71
2021/09/20 07:33:56;;;;;;;14.00;8.18;;;14.40;80.50;;;13.14;72.68;100879.00;5009470;28;20532;-71
2021/09/20 07:36:24;;;;;;;19.98;8.13;;;14.40;81.00;;;13.19;72.50;100884.72;5009790;28;20137;-71
2021/09/20 07:38:51;;;;;;;13.25;8.38;;;14.40;80.80;;;13.23;72.82;100887.91;5008226;28;20038;-71
2021/09/20 07:41:20;;;;;;;13.32;7.65;;;14.40;81.00;;;13.25;71.71;100886.69;4992062;28;20091;-71
2021/09/20 07:43:47;;;;;;;13.63;8.43;;;14.40;80.60;;;13.20;73.08;100886.41;5009331;28;20049;-72
2021/09/20 07:46:16;;;;;;;10.65;7.78;;;14.50;81.10;;;13.29;72.60;100896.19;5008492;28;20089;-71
2021/09/20 07:48:44;;;;;;;13.57;7.93;;;14.50;80.40;;;13.32;72.32;100894.16;5008246;28;20528;-72
2021/09/20 07:51:11;;;;;;;14.02;8.02;;;14.60;80.90;;;13.45;72.88;100897.03;5009050;28;20045;-71
2021/09/20 07:53:39;;;;;;;15.55;7.88;;;14.70;81.10;;;13.55;73.23;100893.97;5009869;28;20108;-71
2021/09/20 07:56:06;;;;;;;14.98;7.82;;;14.70;81.20;;;13.55;71.35;100900.28;5008173;28;20413;-71
2021/09/20 07:58:35;;;;;;;12.63;7.75;;;14.80;80.00;;;13.56;70.90;100902.00;5007608;28;20054;-71
2021/09/20 08:01:03;;;;;;;10.25;7.30;;;14.80;79.90;;;13.58;70.34;100902.63;5008956;28;20129;-71
2021/09/20 08:03:31;;;;;;;12.13;7.93;;;14.80;78.70;;;13.64;71.01;100907.31;5008626;28;20034;-71
2021/09/20 08:05:59;;;;;;;11.20;7.43;;;14.80;79.40;;;13.75;70.36;100903.22;5009162;28;20089;-71
2021/09/20 08:08:26;;;;;;;14.25;7.88;;;14.80;79.50;;;13.81;70.43;100912.53;5008352;28;20041;-74
2021/09/20 08:10:56;;;;;;;10.30;6.80;;;14.90;79.20;;;13.88;71.04;100910.72;5008728;28;20046;-73
2021/09/20 08:13:23;;;;;;;12.88;7.45;;;14.90;80.00;;;14.00;70.37;100913.75;5008975;28;20450;-74
2021/09/20 08:15:52;;;;;;;16.17;7.47;;;15.00;79.60;;;13.99;69.62;100914.78;5007789;28;20045;-74
2021/09/20 08:18:19;;;;;;;12.27;7.10;;;15.10;78.90;;;14.06;69.36;100908.31;5008899;28;20092;-74
2021/09/20 08:20:48;;;;;;;11.50;7.20;;;15.10;78.50;;;14.12;69.12;100919.53;5008432;28;20319;-74
2021/09/20 08:23:16;;;;;;;13.40;7.28;;;15.10;78.20;;;14.17;68.21;100917.06;5008186;28;20049;-74
2021/09/20 08:25:44;;;;;;;12.05;7.25;;;15.10;78.30;;;14.18;68.89;100914.09;5009066;28;20053;-74
2021/09/20 08:28:12;;;;;;;10.30;7.15;;;15.20;78.90;;;14.22;70.21;100920.03;5008970;28;20049;-74
2021/09/20 08:30:40;;;;;;;10.40;7.35;;;15.30;79.20;;;14.20;69.27;100924.84;5007891;28;20038;-74
2021/09/20 08:33:10;;;;;;;9.75;6.70;;;15.30;78.90;;;14.13;69.64;100922.09;5018752;28;20073;-74
2021/09/20 08:35:37;;;;;;;11.20;7.22;;;15.40;78.70;;;14.05;69.98;100922.19;5007884;28;20057;-74
2021/09/20 08:38:05;;;;;;;9.35;6.72;;;15.50;78.60;;;13.99;70.82;100923.00;5006471;28;20141;-74
2021/09/20 08:40:34;;;;;;;12.13;7.20;;;15.40;78.40;;;14.00;70.28;100925.53;5013490;28;20041;-74
2021/09/20 08:43:02;;;;;;;11.05;7.25;;;15.50;78.30;;;14.11;70.29;100928.78;5011308;28;20104;-74
2021/09/20 08:45:30;;;;;;;10.73;6.63;;;15.50;78.40;;;14.21;69.56;100924.66;5012305;28;20128;-74
2021/09/20 08:48:00;;;;;;;11.52;7.32;;;15.50;78.20;;;14.38;68.25;100927.13;5008680;28;20052;-74
2021/09/20 08:50:32;;;;;;;9.77;6.38;;;15.60;78.00;;;14.42;68.34;100928.41;5001767;28;20105;-74
2021/09/20 08:53:00;;;;;;;10.50;6.75;;;15.60;76.90;;;14.48;66.39;100927.59;5011825;28;20039;-74
2021/09/20 08:55:28;;;;;;;9.73;6.22;;;15.60;75.80;;;14.50;66.26;100930.97;5013976;28;20033;-74
2021/09/20 08:57:56;;;;;;;9.43;5.75;;;15.70;75.40;;;14.57;65.67;100925.59;5002130;28;20046;-74
2021/09/20 09:00:23;;;;;;;8.65;5.60;;;15.60;75.10;;;14.55;64.39;100939.44;5006790;28;20046;-74
2021/09/20 09:02:51;;;;;;;11.25;6.10;;;15.60;73.90;;;14.63;65.21;100938.47;5019910;28;20132;-74
2021/09/20 09:05:22;;;;;;;8.90;6.07;;;15.70;75.20;;;14.68;64.96;100938.72;5027657;28;20087;-74
2021/09/20 09:07:54;;;;;;;12.25;5.78;;;15.70;74.50;;;14.75;65.59;100939.59;5010577;28;20531;-74
2021/09/20 09:10:24;;;;;;;7.70;5.53;;;15.90;75.30;;;14.79;64.44;100942.78;5007316;28;20045;-74
2021/09/20 09:12:53;;;;;;;8.18;5.10;;;15.90;74.00;;;14.80;62.21;100944.47;5008102;28;20132;-74
2021/09/20 09:15:23;;;;;;;8.07;4.85;;;15.90;73.10;;;14.79;62.18;100946.38;5007359;28;20045;-74
2021/09/20 09:17:55;;;;;;;9.68;5.38;;;15.90;72.30;;;14.80;62.24;100952.69;5010549;28;20042;-74
2021/09/20 09:20:27;;;;;;;6.90;4.78;;;15.90;71.70;;;14.78;61.45;100947.41;5003016;28;20606;-74
2021/09/20 09:22:58;;;;;;;7.25;4.88;;;16.00;71.90;;;14.82;62.39;100945.13;5010720;28;20046;-74
2021/09/20 09:25:28;;;;;;;8.57;6.07;;;16.00;72.20;;;14.84;61.85;100953.97;4991704;28;20046;-74
2021/09/20 09:28:02;;;;;;;8.18;5.47;;;16.00;71.70;;;14.81;60.55;100955.25;5027695;28;20634;-74
2021/09/20 09:30:39;;;;;;;9.07;5.53;;;16.00;70.80;;;14.85;61.91;100945.56;5011861;28;20038;-75
2021/09/20 09:33:08;;;;;;;8.70;6.15;;;16.10;71.70;;;14.86;61.19;100952.72;5008989;28;20089;-74
2021/09/20 09:35:37;;;;;;;8.57;5.50;;;16.10;71.10;;;14.89;61.65;100950.63;5026390;28;20049;-74
2021/09/20 09:38:09;;;;;;;7.60;5.20;;;16.10;71.30;;;14.90;60.52;100957.81;5019622;28;20045;-74
2021/09/20 09:40:49;;;;;;;9.45;5.50;;;16.10;70.10;;;14.86;60.30;100952.72;5005014;28;20050;-73
2021/09/20 09:43:23;;;;;;;7.65;5.45;;;16.10;69.70;;;14.92;60.39;100961.19;4988435;28;20596;-73
2021/09/20 09:45:51;;;;;;;23.70;5.88;;;16.10;69.80;;;14.95;60.92;100969.03;5025686;28;20115;-73
2021/09/20 09:48:23;;;;;;;10.25;5.63;;;16.20;70.40;;;15.00;60.38;100966.50;5026836;28;20049;-74
2021/09/20 09:50:51;;;;;;;;;;;16.20;70.00;;;15.00;59.95;100969.25;5006967;28;20046;-74
2021/09/20 09:53:28;;;;;;;9.93;5.75;;;16.30;69.90;;;15.05;60.46;100972.22;5007876;28;20603;-74
2021/09/20 09:55:58;;;;;;;8.40;5.78;;;16.30;70.10;;;15.08;60.73;100960.88;5009179;28;20045;-71
2021/09/20 09:58:26;;;;;;;8.30;5.68;;;16.30;70.40;;;15.11;60.10;100960.44;4992283;28;20521;-71
2021/09/20 10:01:16;;;;;;;7.97;5.65;;;16.40;69.60;;;15.12;59.90;100972.28;5001154;28;20073;-71
2021/09/20 10:04:06;;;;;;;10.40;5.00;;;16.40;69.40;;;15.16;60.06;100971.66;4999951;28;20125;-70
2021/09/20 10:06:54;;;;;;;8.00;5.70;;;16.40;69.90;;;15.15;59.41;100978.19;5000541;28;20045;-70
2021/09/20 10:09:27;;;;;;;7.75;5.28;;;16.50;69.30;;;15.19;59.58;100974.00;5003703;28;20046;-70
2021/09/20 10:11:57;;;;;;;9.98;5.53;;;16.50;68.90;;;15.21;58.89;100977.38;5001707;28;20046;-69
2021/09/20 10:14:26;;;;;;;9.05;5.95;;;16.50;68.50;;;15.17;58.30;100970.63;4987582;28;20141;-69
2021/09/20 10:16:57;;;;;;;10.93;5.63;;;16.40;67.50;;;15.22;58.98;100968.09;5007340;28;20074;-72
2021/09/20 10:19:25;;;;;;;9.88;5.97;;;16.40;68.20;;;15.21;57.79;100969.16;5004339;28;20038;-70
2021/09/20 10:21:53;;;;;;;9.65;5.57;;;16.50;67.50;;;15.27;58.98;100970.25;5006965;28;20116;-70
2021/09/20 10:24:23;;;;;;;9.50;5.72;;;16.50;68.10;;;15.34;59.48;100965.59;5003058;28;20095;-72
2021/09/20 10:26:51;;;;;;;7.75;5.53;;;16.60;68.40;;;15.39;59.07;100974.06;5004853;28;20414;-72
2021/09/20 10:29:20;;;;;;;9.85;6.07;;;16.60;68.40;;;15.44;58.13;100987.19;5003100;28;20034;-73
2021/09/20 10:31:49;;;;;;;7.10;5.20;;;16.70;66.90;;;15.39;57.56;100979.56;5008164;28;20104;-72
2021/09/20 10:34:31;;;;;;;8.40;5.43;;;16.70;66.70;;;15.40;57.92;100975.78;4981723;28;20050;-72
2021/09/20 10:37:10;;;;;;;9.02;5.75;;;16.60;67.40;;;15.41;57.85;100982.09;5004256;28;20033;-72
2021/09/20 10:39:56;;;;;;;8.13;5.47;;;16.70;67.10;;;15.44;57.67;100982.53;5005111;28;20129;-72
2021/09/20 10:42:56;;;;;;;10.05;5.35;;;16.70;66.40;;;15.42;56.48;100978.28;4991109;28;20049;-72
2021/09/20 10:45:55;;;;;;;6.75;5.00;;;16.70;65.50;;;15.45;56.49;100983.38;4994423;28;20053;-72
2021/09/20 10:48:33;;;;;;;8.60;5.55;;;16.70;65.70;;;15.40;56.12;100974.91;5007676;28;20579;-72
2021/09/20 10:51:18;;;;;;;9.30;5.10;;;16.60;64.90;;;15.46;57.16;100979.59;5009530;28;20057;-72
2021/09/20 10:53:46;;;;;;;7.53;5.15;;;16.70;66.90;;;15.52;56.67;100981.50;5009122;28;20373;-71
2021/09/20 10:56:25;;;;;;;7.72;5.30;;;16.70;66.80;;;15.52;56.71;100976.03;5010579;28;20038;-71
2021/09/20 10:59:34;;;;;;;10.77;6.15;;;16.80;66.00;;;15.53;55.22;100985.94;5055347;22;20141;-69
2021/09/20 11:02:12;;;;;;;7.72;4.95;;;16.80;64.50;;;15.50;55.17;100980.00;5067120;28;20036;-69
2021/09/20 11:04:41;;;;;;;8.52;5.60;;;16.80;64.20;;;15.57;56.09;100962.53;5068741;28;20059;-70
2021/09/20 11:07:21;;;;;;;7.90;5.38;;;16.80;65.40;;;15.63;56.38;100972.69;5050361;28;20104;-69
2021/09/20 11:10:08;;;;;;;8.88;5.82;;;16.80;65.70;;;15.66;56.01;100974.16;5061658;28;20029;-69
2021/09/20 11:12:58;;;;;;;7.40;5.10;;;16.90;65.70;;;15.76;56.33;100980.16;5069113;28;20129;-68
2021/09/20 11:15:26;;;;;;;9.82;5.60;;;16.90;65.40;;;15.79;53.72;100978.88;5069172;28;20051;-69
2021/09/20 11:17:54;;;;;;;9.07;5.45;;;17.00;63.70;;;15.78;54.32;100971.69;5069247;28;20074;-69
2021/09/20 11:20:36;;;;;;;9.65;6.03;;;16.90;63.50;;;15.83;55.14;100974.66;5068042;28;20504;-69
2021/09/20 11:23:22;;;;;;;9.23;5.35;;;16.90;64.40;;;15.95;54.66;100963.91;5058781;28;20568;-69